Time;durP1;ratioP1;P1;durP2;ratioP2;P2;SDS_P1;SDS_P2;PMS_P1;PMS_P2;Temp;Humidity;BMP_temperature;BMP_pressure;BME280_temperature;BME280_humidity;BME280_pressure;Samples;Min_cycle;Max_cycle;Signal;HPM_P1;HPM_P2
2022/01/10 00:02:05;;;;;;;42.90;14.75;;;;;;;4.23;100.00;100690.84;5062880;28;20825;-70
2022/01/10 00:04:32;;;;;;;40.47;14.40;;;;;;;4.22;100.00;100694.72;5066116;28;20063;-71
2022/01/10 00:06:59;;;;;;;30.88;12.98;;;;;;;4.26;100.00;100698.31;5078211;28;20063;-70
2022/01/10 00:09:25;;;;;;;34.63;13.77;;;;;;;4.25;100.00;100704.97;5064981;28;20048;-70
2022/01/10 00:11:52;;;;;;;34.05;13.75;;;;;;;4.26;100.00;100705.75;5064850;28;20163;-71
2022/01/10 00:14:18;;;;;;;42.88;14.50;;;;;;;4.23;100.00;100707.28;5065752;28;20482;-70
2022/01/10 00:16:45;;;;;;;37.40;14.20;;;;;;;4.21;100.00;100706.81;5068651;28;20053;-70
2022/01/10 00:19:11;;;;;;;31.55;14.18;;;;;;;4.17;100.00;100711.44;5065355;28;20187;-70
2022/01/10 00:21:38;;;;;;;33.30;13.02;;;;;;;4.17;100.00;100722.38;5065879;28;20111;-70
2022/01/10 00:24:05;;;;;;;43.17;14.38;;;;;;;4.14;100.00;100722.28;5082012;28;20067;-71
2022/01/10 00:26:32;;;;;;;41.90;15.10;;;;;;;4.13;100.00;100713.28;5065058;28;20172;-72
2022/01/10 00:28:58;;;;;;;30.73;13.68;;;;;;;4.11;100.00;100720.25;5067091;28;20050;-72
2022/01/10 00:31:25;;;;;;;34.75;14.55;;;;;;;4.10;100.00;100719.47;5067159;28;20135;-70
2022/01/10 00:33:51;;;;;;;31.08;13.30;;;;;;;4.07;100.00;100719.38;5064321;28;20049;-71
2022/01/10 00:36:18;;;;;;;39.55;13.75;;;;;;;4.02;100.00;100725.91;5070659;28;20967;-70
2022/01/10 00:38:44;;;;;;;38.08;14.80;;;;;;;4.04;100.00;100731.03;5063089;28;20048;-71
2022/01/10 00:41:11;;;;;;;33.17;13.82;;;;;;;3.98;100.00;100733.22;5065820;28;20052;-71
2022/01/10 00:43:45;;;;;;;31.35;12.48;;;;;;;3.95;100.00;100741.38;5065640;28;20049;-70
2022/01/10 00:46:13;;;;;;;38.30;14.40;;;;;;;3.89;100.00;100748.25;5064335;28;20737;-70
2022/01/10 00:48:39;;;;;;;29.67;13.35;;;;;;;3.85;100.00;100742.66;5066336;28;20048;-71
2022/01/10 00:51:06;;;;;;;30.80;14.15;;;;;;;3.82;100.00;100754.34;5067509;28;20059;-71
2022/01/10 00:53:33;;;;;;;32.25;13.07;;;;;;;3.75;100.00;100751.38;5058337;28;20074;-70
2022/01/10 00:55:59;;;;;;;32.95;13.68;;;;;;;3.72;100.00;100765.00;5067960;28;20049;-70
2022/01/10 00:58:26;;;;;;;30.95;13.18;;;;;;;3.69;100.00;100769.22;5064240;28;20048;-72
2022/01/10 01:00:52;;;;;;;35.33;14.10;;;;;;;3.62;100.00;100769.03;5063784;28;20054;-72
2022/01/10 01:03:19;;;;;;;33.55;13.13;;;;;;;3.53;100.00;100775.78;5064641;28;20106;-70
2022/01/10 01:05:47;;;;;;;28.95;14.00;;;;;;;3.51;100.00;100778.88;5066301;28;20094;-71
2022/01/10 01:08:13;;;;;;;38.78;14.73;;;;;;;3.46;100.00;100779.13;5077802;28;20509;-70
2022/01/10 01:16:31;;;;;;;39.03;13.55;;;;;;;3.34;100.00;100792.84;5029105;28;20377;-70
2022/01/10 01:19:22;;;;;;;37.92;17.42;;;;;;;3.29;100.00;100800.50;5061861;28;20479;-72
2022/01/10 01:24:33;;;;;;;44.15;17.52;;;;;;;3.17;100.00;100804.06;5062100;28;20488;-70
2022/01/10 01:27:00;;;;;;;45.78;16.40;;;;;;;3.21;100.00;100821.38;5058630;28;20500;-71
2022/01/10 01:29:30;;;;;;;38.20;17.02;;;;;;;3.16;100.00;100831.75;5067422;28;20480;-71
2022/01/10 01:31:57;;;;;;;31.25;14.45;;;;;;;3.06;100.00;100824.81;5062480;28;20159;-71
2022/01/10 01:34:24;;;;;;;38.85;15.55;;;;;;;3.01;100.00;100835.19;5067342;28;20056;-71
2022/01/10 01:36:54;;;;;;;37.22;14.65;;;;;;;2.98;100.00;100844.06;5065199;28;20072;-71
2022/01/10 01:39:24;;;;;;;35.25;14.30;;;;;;;2.90;100.00;100843.06;5068556;28;20139;-70
2022/01/10 01:41:55;;;;;;;33.83;14.77;;;;;;;2.84;100.00;100840.91;5080062;28;20052;-72
2022/01/10 01:44:21;;;;;;;35.78;15.05;;;;;;;2.78;100.00;100850.47;5064745;28;20049;-71
2022/01/10 01:46:48;;;;;;;34.97;14.38;;;;;;;2.77;100.00;100851.59;5060814;28;20418;-71
2022/01/10 01:49:15;;;;;;;36.13;15.60;;;;;;;2.72;100.00;100856.16;5064438;28;20056;-71
2022/01/10 01:51:41;;;;;;;40.53;15.93;;;;;;;2.67;100.00;100855.59;5057715;28;20106;-71
2022/01/10 01:54:09;;;;;;;34.28;13.68;;;;;;;2.60;100.00;100858.88;5061971;28;20044;-71
2022/01/10 01:56:38;;;;;;;36.05;14.65;;;;;;;2.59;100.00;100870.97;5054998;28;20167;-73
2022/01/10 01:59:05;;;;;;;28.58;13.48;;;;;;;2.55;100.00;100880.16;5064173;28;20131;-71
2022/01/10 02:01:32;;;;;;;37.60;16.40;;;;;;;2.49;100.00;100876.06;5064286;28;20067;-71
2022/01/10 02:03:59;;;;;;;33.00;14.68;;;;;;;2.46;100.00;100891.19;5064597;28;20078;-71
2022/01/10 02:06:25;;;;;;;35.42;15.02;;;;;;;2.43;100.00;100896.53;5067042;28;20044;-70
2022/01/10 02:08:52;;;;;;;31.45;15.07;;;;;;;2.39;100.00;100899.16;5065455;28;20142;-73
2022/01/10 02:11:19;;;;;;;33.90;14.80;;;;;;;2.35;100.00;100906.41;5059563;28;20086;-70
2022/01/10 02:13:46;;;;;;;36.15;13.98;;;;;;;2.30;100.00;100903.13;5065236;28;20117;-70
2022/01/10 02:16:19;;;;;;;32.95;14.85;;;;;;;2.26;100.00;100900.25;5063224;28;20052;-70
2022/01/10 02:18:46;;;;;;;31.10;13.60;;;;;;;2.22;100.00;100906.72;5061519;28;20531;-70
2022/01/10 02:21:14;;;;;;;35.00;15.65;;;;;;;2.17;100.00;100901.47;5062858;28;20052;-72
2022/01/10 02:23:42;;;;;;;31.30;14.02;;;;;;;2.15;100.00;100903.72;5061894;28;20706;-71
2022/01/10 02:26:09;;;;;;;37.20;14.75;;;;;;;2.12;100.00;100915.31;5062751;28;20194;-72
2022/01/10 02:28:35;;;;;;;31.73;13.93;;;;;;;2.07;100.00;100912.81;5063555;28;20048;-72
2022/01/10 02:31:02;;;;;;;36.05;14.27;;;;;;;2.05;100.00;100921.34;5062655;28;20055;-71
2022/01/10 02:33:31;;;;;;;36.10;14.88;;;;;;;2.03;100.00;100933.72;5064539;28;20506;-71
2022/01/10 02:38:28;;;;;;;31.15;14.63;;;;;;;1.95;100.00;100943.56;5062668;28;20059;-71
2022/01/10 02:40:56;;;;;;;30.35;14.18;;;;;;;1.94;100.00;100947.44;5062802;28;20110;-71
2022/01/10 02:43:23;;;;;;;32.45;14.93;;;;;;;1.91;100.00;100955.50;5057859;28;20044;-71
2022/01/10 02:45:49;;;;;;;41.83;14.90;;;;;;;1.92;100.00;100948.88;5060572;28;20128;-71
2022/01/10 02:48:16;;;;;;;39.30;14.93;;;;;;;1.90;100.00;100957.44;5061718;28;20067;-72
2022/01/10 02:50:43;;;;;;;42.97;15.68;;;;;;;1.88;100.00;100967.06;5066245;28;20246;-70
2022/01/10 02:53:10;;;;;;;37.80;15.90;;;;;;;1.84;100.00;100971.59;5061947;28;20040;-71
2022/01/10 02:55:36;;;;;;;36.28;14.40;;;;;;;1.80;100.00;100979.66;5064304;28;20142;-71
2022/01/10 02:58:03;;;;;;;44.50;17.35;;;;;;;1.76;100.00;100973.25;5065845;28;20055;-71
2022/01/10 03:00:29;;;;;;;34.20;14.75;;;;;;;1.76;100.00;100977.94;5062728;28;20052;-71
2022/01/10 03:02:57;;;;;;;42.20;17.85;;;;;;;1.76;100.00;100972.47;5065415;28;20055;-72
2022/01/10 03:05:25;;;;;;;40.33;17.10;;;;;;;1.76;100.00;100983.38;5070572;28;20052;-71
2022/01/10 03:07:54;;;;;;;38.35;15.73;;;;;;;1.73;100.00;100986.78;5065765;28;20222;-71
2022/01/10 03:10:21;;;;;;;42.80;16.48;;;;;;;1.67;100.00;100986.16;5069878;28;20090;-71
2022/01/10 03:12:48;;;;;;;44.58;20.10;;;;;;;1.66;100.00;100994.69;5067745;28;20044;-71
2022/01/10 03:15:15;;;;;;;46.53;21.20;;;;;;;1.66;100.00;101009.09;5061382;28;20136;-70
2022/01/10 03:17:41;;;;;;;39.65;20.80;;;;;;;1.63;100.00;101008.97;5064266;28;20080;-72
2022/01/10 03:20:09;;;;;;;50.67;21.73;;;;;;;1.63;100.00;101008.97;5068473;28;20048;-70
2022/01/10 03:22:36;;;;;;;49.10;22.27;;;;;;;1.59;100.00;101008.81;5081978;28;20398;-70
2022/01/10 03:25:03;;;;;;;47.72;21.58;;;;;;;1.59;100.00;101013.50;5071126;28;20145;-70
2022/01/10 03:27:30;;;;;;;42.85;20.80;;;;;;;1.53;100.00;101007.44;5068849;28;20063;-70
2022/01/10 03:29:56;;;;;;;47.28;19.25;;;;;;;1.47;100.00;101018.84;5070855;28;20080;-70
2022/01/10 03:32:24;;;;;;;41.22;19.63;;;;;;;1.45;100.00;101026.59;5069693;28;20262;-68
2022/01/10 03:34:50;;;;;;;44.22;19.73;;;;;;;1.44;100.00;101022.22;5070614;28;20511;-70
2022/01/10 03:37:17;;;;;;;40.08;19.02;;;;;;;1.40;100.00;101024.03;5069050;28;20125;-70
2022/01/10 03:39:44;;;;;;;46.33;19.10;;;;;;;1.37;100.00;101027.41;5068469;28;20139;-70
2022/01/10 03:42:12;;;;;;;42.15;18.65;;;;;;;1.32;100.00;101020.19;5068695;28;20076;-70
2022/01/10 03:44:38;;;;;;;43.00;18.83;;;;;;;1.32;100.00;101035.78;5068617;28;20385;-69
2022/01/10 03:47:06;;;;;;;43.90;18.77;;;;;;;1.26;100.00;101021.53;5066360;28;20048;-71
2022/01/10 03:49:32;;;;;;;51.58;21.25;;;;;;;1.28;100.00;101024.72;5070374;28;20049;-71
2022/01/10 03:51:59;;;;;;;40.05;18.45;;;;;;;1.31;100.00;101045.88;5065485;28;20051;-70
2022/01/10 03:54:25;;;;;;;44.85;20.65;;;;;;;1.31;100.00;101043.16;5070217;28;20044;-71
2022/01/10 03:56:52;;;;;;;46.63;20.17;;;;;;;1.32;100.00;101058.38;5069006;28;20052;-72
2022/01/10 03:59:19;;;;;;;47.22;21.20;;;;;;;1.34;100.00;101058.84;5068004;28;20072;-70
2022/01/10 04:01:46;;;;;;;50.45;21.00;;;;;;;1.32;100.00;101060.31;5066969;28;20054;-70
2022/01/10 04:04:13;;;;;;;64.38;28.92;;;;;;;1.37;100.00;101069.09;5069439;28;20157;-70
2022/01/10 04:06:41;;;;;;;52.35;22.88;;;;;;;1.34;100.00;101068.94;5069459;28;20497;-70
2022/01/10 04:09:07;;;;;;;43.30;20.38;;;;;;;1.29;100.00;101072.69;5069129;28;20132;-71
2022/01/10 04:11:34;;;;;;;48.33;21.15;;;;;;;1.24;100.00;101074.75;5067351;28;20040;-71
2022/01/10 04:14:01;;;;;;;46.05;21.65;;;;;;;1.20;100.00;101073.81;5066639;28;20122;-71
2022/01/10 04:16:27;;;;;;;54.00;22.02;;;;;;;1.20;100.00;101073.81;5068809;28;20056;-71
2022/01/10 04:18:55;;;;;;;43.58;20.95;;;;;;;1.21;100.00;101086.34;5069959;28;20498;-70
2022/01/10 04:21:24;;;;;;;47.60;20.77;;;;;;;1.21;100.00;101089.06;5068432;28;20584;-70
2022/01/10 04:23:51;;;;;;;45.58;22.88;;;;;;;1.14;100.00;101091.47;5067826;28;20506;-71
2022/01/10 04:26:17;;;;;;;44.00;21.00;;;;;;;1.10;100.00;101102.22;5066480;28;20044;-72
2022/01/10 04:28:44;;;;;;;51.25;22.50;;;;;;;1.09;100.00;101110.72;5067344;28;20456;-70
2022/01/10 04:31:11;;;;;;;47.78;19.83;;;;;;;1.08;100.00;101114.59;5067559;28;20135;-70
2022/01/10 04:33:39;;;;;;;47.95;21.80;;;;;;;1.07;100.00;101118.41;5068546;28;20508;-70
2022/01/10 04:36:06;;;;;;;58.38;22.45;;;;;;;1.07;100.00;101129.31;5076324;28;20126;-69
2022/01/10 04:38:34;;;;;;;48.80;20.98;;;;;;;1.05;100.00;101128.88;5067023;28;20052;-70
2022/01/10 04:41:02;;;;;;;43.22;20.98;;;;;;;1.04;100.00;101136.22;5061620;28;20143;-71
2022/01/10 04:43:29;;;;;;;46.65;20.98;;;;;;;0.99;100.00;101138.31;5066142;28;20059;-69
2022/01/10 04:46:00;;;;;;;46.97;21.17;;;;;;;0.94;100.00;101150.19;5068002;28;20139;-70
2022/01/10 04:48:27;;;;;;;44.03;20.35;;;;;;;0.91;100.00;101161.72;5072677;28;20087;-70
2022/01/10 04:53:20;;;;;;;42.65;20.88;;;;;;;0.82;100.00;101173.75;5066972;28;20058;-71
2022/01/10 04:55:46;;;;;;;49.28;20.98;;;;;;;0.81;100.00;101186.56;5067974;28;20139;-70
2022/01/10 04:58:15;;;;;;;54.17;21.65;;;;;;;0.83;100.00;101188.97;5069034;28;20048;-71
2022/01/10 05:00:42;;;;;;;45.75;20.60;;;;;;;0.82;100.00;101192.81;5071134;28;20052;-70
2022/01/10 05:03:08;;;;;;;48.67;22.42;;;;;;;0.83;100.00;101199.88;5070231;28;20058;-70
2022/01/10 05:05:35;;;;;;;57.22;22.10;;;;;;;0.84;100.00;101196.81;5069056;28;20048;-70
2022/01/10 05:08:01;;;;;;;44.50;22.05;;;;;;;0.81;100.00;101199.41;5069099;28;20432;-69
2022/01/10 05:10:28;;;;;;;50.13;21.75;;;;;;;0.79;100.00;101210.63;5085265;28;20534;-70
2022/01/10 05:12:54;;;;;;;53.95;21.63;;;;;;;0.76;100.00;101205.81;5072413;28;20056;-70
2022/01/10 05:15:21;;;;;;;55.10;21.73;;;;;;;0.75;100.00;101217.84;5067268;28;20056;-69
2022/01/10 05:17:48;;;;;;;54.67;22.55;;;;;;;0.76;100.00;101208.53;5066580;28;20080;-70
2022/01/10 05:20:14;;;;;;;54.60;23.05;;;;;;;0.77;100.00;101221.03;5057250;28;20044;-71
2022/01/10 05:22:41;;;;;;;52.95;22.10;;;;;;;0.79;100.00;101234.31;5064003;28;20055;-69
2022/01/10 05:25:07;;;;;;;52.10;22.75;;;;;;;0.76;100.00;101233.03;5068165;28;20135;-71
2022/01/10 05:27:34;;;;;;;49.08;21.42;;;;;;;0.76;100.00;101234.97;5067482;28;20087;-72
2022/01/10 05:30:00;;;;;;;43.03;22.48;;;;;;;0.74;100.00;101239.94;5065067;28;20049;-70
2022/01/10 05:32:27;;;;;;;50.70;21.77;;;;;;;0.71;100.00;101246.81;5065809;28;20056;-71
2022/01/10 05:34:53;;;;;;;53.20;22.98;;;;;;;0.69;100.00;101238.16;5067685;28;20076;-72
2022/01/10 05:37:20;;;;;;;47.35;22.02;;;;;;;0.68;100.00;101258.38;5060745;28;20102;-70
2022/01/10 05:39:47;;;;;;;56.00;23.27;;;;;;;0.70;100.00;101263.47;5068459;28;20056;-71
2022/01/10 05:42:14;;;;;;;50.33;23.40;;;;;;;0.73;100.00;101268.28;5065480;28;20066;-71
2022/01/10 05:44:41;;;;;;;56.13;22.45;;;;;;;0.72;100.00;101274.84;5067274;28;20557;-70
2022/01/10 05:47:07;;;;;;;51.50;23.13;;;;;;;0.71;100.00;101295.06;5060941;28;20054;-71
2022/01/10 05:49:37;;;;;;;51.85;25.90;;;;;;;0.68;100.00;101284.78;5067348;28;20052;-70
2022/01/10 05:52:04;;;;;;;47.95;21.83;;;;;;;0.65;100.00;101294.41;5065758;28;20078;-71
2022/01/10 05:54:31;;;;;;;54.45;23.38;;;;;;;0.66;100.00;101298.72;5068462;28;20131;-70
2022/01/10 05:56:57;;;;;;;48.80;21.10;;;;;;;0.67;100.00;101304.97;5067864;28;20056;-71
2022/01/10 05:59:24;;;;;;;51.03;21.80;;;;;;;0.66;100.00;101304.16;5067570;28;20140;-71
2022/01/10 06:01:50;;;;;;;51.40;22.63;;;;;;;0.68;100.00;101323.72;5062617;28;20616;-70
2022/01/10 06:04:17;;;;;;;48.53;21.73;;;;;;;0.70;100.00;101320.66;5068153;28;20083;-71
2022/01/10 06:06:44;;;;;;;49.72;24.20;;;;;;;0.70;100.00;101326.09;5069182;28;20672;-71
2022/01/10 06:09:10;;;;;;;47.70;23.23;;;;;;;0.73;100.00;101330.91;5065613;28;20052;-71
2022/01/10 06:11:39;;;;;;;54.95;23.48;;;;;;;0.68;100.00;101323.72;5064620;28;20098;-71
2022/01/10 06:14:07;;;;;;;46.45;22.08;;;;;;;0.66;100.00;101336.03;5063772;28;20054;-71
2022/01/10 06:16:36;;;;;;;52.15;22.45;;;;;;;0.62;100.00;101344.03;5065566;28;20049;-71
2022/01/10 06:19:03;;;;;;;46.85;22.40;;;;;;;0.63;100.00;101336.66;5067526;28;20723;-71
2022/01/10 06:21:30;;;;;;;48.85;23.70;;;;;;;0.65;100.00;101343.41;5066157;28;20094;-72
2022/01/10 06:23:56;;;;;;;58.03;23.13;;;;;;;0.69;100.00;101352.56;5065330;28;20076;-70
2022/01/10 06:26:23;;;;;;;53.03;23.65;;;;;;;0.70;100.00;101356.88;5062718;28;20083;-71
2022/01/10 06:28:49;;;;;;;56.95;25.45;;;;;;;0.69;100.00;101354.47;5059584;28;20053;-73
2022/01/10 06:31:16;;;;;;;52.25;24.40;;;;;;;0.71;100.00;101354.97;5063184;28;20314;-72
2022/01/10 06:33:43;;;;;;;51.92;24.23;;;;;;;0.71;100.00;101374.03;5064526;28;20485;-74
2022/01/10 06:36:09;;;;;;;51.80;22.77;;;;;;;0.70;100.00;101380.56;5070629;28;20094;-72
2022/01/10 06:38:36;;;;;;;52.75;22.85;;;;;;;0.69;100.00;101382.53;5066196;28;20132;-75
2022/01/10 06:41:03;;;;;;;48.47;23.58;;;;;;;0.68;100.00;101380.91;5064503;28;20108;-72
2022/01/10 06:43:30;;;;;;;51.30;22.17;;;;;;;0.69;100.00;101384.44;5056127;28;20183;-70
2022/01/10 06:45:56;;;;;;;47.83;22.58;;;;;;;0.68;100.00;101389.09;5063658;28;20479;-71
2022/01/10 06:48:23;;;;;;;46.95;23.75;;;;;;;0.69;100.00;101398.88;5078709;28;20420;-73
2022/01/10 06:50:50;;;;;;;53.03;24.30;;;;;;;0.70;100.00;101402.38;5066499;28;20044;-71
2022/01/10 06:53:17;;;;;;;47.55;23.58;;;;;;;0.72;100.00;101409.13;5068939;28;20072;-74
2022/01/10 06:55:44;;;;;;;54.03;25.35;;;;;;;0.73;100.00;101410.72;5064191;28;20106;-70
2022/01/10 06:58:11;;;;;;;58.20;25.73;;;;;;;0.77;100.00;101430.75;5063753;28;20071;-71
2022/01/10 07:00:39;;;;;;;54.42;25.38;;;;;;;0.79;100.00;101422.28;5065154;28;20044;-71
2022/01/10 07:03:07;;;;;;;60.10;24.20;;;;;;;0.81;100.00;101431.75;5062218;28;20052;-70
2022/01/10 07:05:34;;;;;;;57.33;26.27;;;;;;;0.81;100.00;101437.19;5067576;28;20048;-71
2022/01/10 07:08:01;;;;;;;65.25;27.02;;;;;;;0.87;100.00;101441.38;5068931;28;20761;-70
2022/01/10 07:10:27;;;;;;;61.97;28.83;;;;;;;0.90;100.00;101451.66;5066794;28;20076;-71
2022/01/10 07:12:55;;;;;;;64.82;28.63;;;;;;;0.91;100.00;101452.47;5063779;28;20515;-70
2022/01/10 07:15:24;;;;;;;56.25;26.30;;;;;;;0.92;100.00;101456.78;5065708;28;20099;-70
2022/01/10 07:17:51;;;;;;;58.28;25.83;;;;;;;0.92;100.00;101471.22;5068054;28;20048;-70
2022/01/10 07:20:18;;;;;;;58.38;26.17;;;;;;;0.90;100.00;101478.09;5066382;28;20052;-71
2022/01/10 07:22:45;;;;;;;63.00;27.17;;;;;;;0.93;100.00;101491.09;5070874;28;20057;-71
2022/01/10 07:25:11;;;;;;;61.70;27.27;;;;;;;0.92;100.00;101492.22;5066036;28;20048;-71
2022/01/10 07:27:38;;;;;;;56.92;27.75;;;;;;;0.94;100.00;101506.34;5067083;28;20044;-72
2022/01/10 07:30:05;;;;;;;59.78;26.33;;;;;;;0.94;100.00;101509.84;5068625;28;20098;-71
2022/01/10 07:32:32;;;;;;;54.08;27.10;;;;;;;0.95;100.00;101514.19;5066482;28;20709;-71
2022/01/10 07:34:58;;;;;;;62.75;26.65;;;;;;;0.92;100.00;101516.75;5070221;28;20051;-72
2022/01/10 07:37:25;;;;;;;54.95;26.20;;;;;;;0.93;100.00;101534.69;5068553;28;20057;-71
2022/01/10 07:39:52;;;;;;;60.50;28.33;;;;;;;0.92;100.00;101536.63;5067059;28;20060;-71
2022/01/10 07:42:18;;;;;;;59.75;26.30;;;;;;;0.91;100.00;101534.22;5061899;28;20060;-71
2022/01/10 07:44:45;;;;;;;54.20;27.38;;;;;;;0.93;100.00;101540.94;5060140;28;20135;-71
2022/01/10 07:47:11;;;;;;;61.75;27.05;;;;;;;0.96;100.00;101547.69;5067408;28;20140;-73
2022/01/10 07:49:38;;;;;;;58.67;25.55;;;;;;;0.91;100.00;101542.38;5070870;28;20059;-73
2022/01/10 07:52:04;;;;;;;55.67;25.55;;;;;;;0.92;100.00;101560.34;5070594;28;20706;-70
2022/01/10 07:54:31;;;;;;;49.72;24.23;;;;;;;0.93;100.00;101565.47;5068278;28;20045;-73
2022/01/10 07:56:58;;;;;;;53.05;23.67;;;;;;;0.94;100.00;101574.47;5071135;28;20558;-74
2022/01/10 07:59:25;;;;;;;52.50;23.42;;;;;;;0.94;100.00;101591.59;5073333;28;20128;-74
2022/01/10 08:01:52;;;;;;;55.17;25.55;;;;;;;0.93;100.00;101590.00;5070597;28;20052;-72
2022/01/10 08:04:19;;;;;;;59.72;25.17;;;;;;;0.93;100.00;101587.28;5071933;28;20047;-73
2022/01/10 08:06:45;;;;;;;56.15;25.30;;;;;;;0.93;100.00;101600.91;5071957;28;20139;-75
2022/01/10 08:09:12;;;;;;;47.33;23.23;;;;;;;0.90;100.00;101604.25;5071699;28;20048;-74
2022/01/10 08:11:39;;;;;;;52.40;24.02;;;;;;;0.91;100.00;101614.00;5070826;28;20052;-74
2022/01/10 08:14:05;;;;;;;55.72;27.52;;;;;;;0.86;100.00;101610.63;5070450;28;20826;-73
2022/01/10 08:16:32;;;;;;;55.85;24.15;;;;;;;0.89;100.00;101621.72;5067969;28;20131;-74
2022/01/10 08:18:59;;;;;;;56.45;24.08;;;;;;;0.89;100.00;101631.78;5071334;28;20056;-73
2022/01/10 08:21:26;;;;;;;50.85;23.58;;;;;;;0.91;100.00;101632.31;5070742;28;20052;-74
2022/01/10 08:23:52;;;;;;;57.47;24.38;;;;;;;0.92;100.00;101642.06;5070428;28;20135;-74
2022/01/10 08:26:20;;;;;;;50.10;24.30;;;;;;;0.93;100.00;101641.78;5070956;28;20048;-72
2022/01/10 08:28:47;;;;;;;53.20;24.63;;;;;;;0.94;100.00;101642.59;5069269;28;20109;-73
2022/01/10 08:31:14;;;;;;;57.17;25.83;;;;;;;0.93;100.00;101647.22;5069724;28;20052;-74
2022/01/10 08:33:41;;;;;;;51.30;24.50;;;;;;;0.96;100.00;101660.22;5070607;28;20139;-74
2022/01/10 08:36:08;;;;;;;59.03;27.30;;;;;;;0.93;100.00;101651.84;5068941;28;20076;-74
2022/01/10 08:38:35;;;;;;;59.90;29.75;;;;;;;0.97;100.00;101656.38;5070603;28;20098;-74
2022/01/10 08:41:02;;;;;;;61.13;28.02;;;;;;;0.98;100.00;101652.53;5064374;28;20077;-74
2022/01/10 08:43:28;;;;;;;55.10;26.48;;;;;;;1.02;100.00;101669.06;5063506;28;20052;-75
2022/01/10 08:45:55;;;;;;;57.40;25.58;;;;;;;1.03;100.00;101665.22;5070687;28;20041;-74
2022/01/10 08:48:22;;;;;;;62.65;30.60;;;;;;;1.07;100.00;101682.56;5069253;28;20142;-75
2022/01/10 08:50:48;;;;;;;62.13;28.85;;;;;;;1.10;100.00;101684.66;5068560;28;20144;-74
2022/01/10 08:53:15;;;;;;;66.68;28.65;;;;;;;1.07;100.00;101674.38;5069351;28;20131;-75
2022/01/10 08:55:41;;;;;;;61.97;29.13;;;;;;;1.13;100.00;101679.41;5067498;28;20071;-74
2022/01/10 08:58:08;;;;;;;55.50;26.17;;;;;;;1.18;100.00;101683.94;5069015;28;20044;-76
2022/01/10 09:00:35;;;;;;;60.05;26.00;;;;;;;1.20;100.00;101689.88;5066364;28;20056;-73
2022/01/10 09:03:03;;;;;;;67.75;28.67;;;;;;;1.23;100.00;101690.06;5067158;28;20571;-76
2022/01/10 09:05:30;;;;;;;62.35;27.08;;;;;;;1.27;100.00;101696.50;5064668;28;20072;-76
2022/01/10 09:07:58;;;;;;;59.38;26.20;;;;;;;1.32;100.00;101695.56;5071940;28;20053;-75
2022/01/10 09:10:28;;;;;;;63.05;26.90;;;;;;;1.35;100.00;101697.69;5070534;28;20105;-73
2022/01/10 09:12:58;;;;;;;56.65;25.50;;;;;;;1.40;100.00;101703.81;5069208;28;20063;-73
2022/01/10 09:15:25;;;;;;;62.08;27.30;;;;;;;1.44;100.00;101706.69;5069661;28;20136;-73
2022/01/10 09:17:52;;;;;;;58.58;27.25;;;;;;;1.47;100.00;101711.53;5069523;28;20579;-73
2022/01/10 09:20:19;;;;;;;62.42;29.75;;;;;;;1.52;100.00;101708.69;5069944;28;20082;-73
2022/01/10 09:22:46;;;;;;;67.43;28.13;;;;;;;1.56;100.00;101710.47;5069557;28;20139;-73
2022/01/10 09:25:12;;;;;;;60.22;28.80;;;;;;;1.60;100.00;101716.91;5069674;28;20040;-74
2022/01/10 09:27:39;;;;;;;54.88;28.98;;;;;;;1.62;100.00;101711.13;5068431;28;20059;-73
2022/01/10 09:30:06;;;;;;;67.18;30.02;;;;;;;1.73;100.00;101726.13;5068319;28;20151;-72
2022/01/10 09:32:33;;;;;;;61.65;28.17;;;;;;;1.79;100.00;101714.75;5068194;28;20100;-74
2022/01/10 09:34:59;;;;;;;63.63;29.25;;;;;;;1.89;100.00;101730.06;5073697;28;20560;-73
2022/01/10 09:37:27;;;;;;;84.50;33.85;;;;;;;2.03;100.00;101719.81;5066930;28;20685;-74
2022/01/10 09:39:58;;;;;;;81.70;37.75;;;;;;;2.17;100.00;101726.75;5067693;28;20117;-71
2022/01/10 09:42:25;;;;;;;82.10;38.95;;;;;;;2.34;100.00;101731.47;5069459;28;20048;-76
2022/01/10 09:44:52;;;;;;;77.30;37.60;;;;;;;2.49;100.00;101733.75;5068455;28;20080;-74
2022/01/10 09:47:19;;;;;;;80.38;39.65;;;;;;;2.63;100.00;101745.34;5068294;28;20056;-72
2022/01/10 09:49:45;;;;;;;82.22;38.50;;;;;;;2.73;100.00;101758.69;5067365;28;20421;-75
2022/01/10 09:52:13;;;;;;;82.07;41.33;;;;;;;2.79;100.00;101765.63;5065689;28;20087;-72
2022/01/10 09:54:39;;;;;;;72.57;34.20;;;;;;;2.92;100.00;101756.47;5067441;28;20058;-73
2022/01/10 09:57:06;;;;;;;73.05;33.53;;;;;;;3.03;100.00;101760.50;5068203;28;20163;-74
2022/01/10 09:59:33;;;;;;;71.07;32.58;;;;;;;3.19;100.00;101764.34;5066515;28;20052;-74
2022/01/10 10:01:59;;;;;;;61.92;28.50;;;;;;;3.33;100.00;101775.94;5068504;28;20072;-73
2022/01/10 10:04:26;;;;;;;62.10;25.00;;;;;;;3.45;100.00;101778.00;5067787;28;20049;-74
2022/01/10 10:06:53;;;;;;;55.22;26.88;;;;;;;3.61;100.00;101781.84;5067439;28;20083;-74
2022/01/10 10:09:21;;;;;;;23.60;9.40;;;;;;;3.66;100.00;101785.22;5068857;28;20189;-74
2022/01/10 10:11:50;;;;;;;10.25;4.70;;;;;;;3.72;100.00;101794.88;5065451;28;20449;-76
2022/01/10 10:14:20;;;;;;;50.65;17.67;;;;;;;3.82;100.00;101791.78;5056228;28;20057;-74
2022/01/10 10:16:50;;;;;;;38.78;16.10;;;;;;;3.85;100.00;101793.84;5066588;28;20172;-74
2022/01/10 10:19:19;;;;;;;55.13;23.00;;;;;;;3.98;100.00;101798.34;5066730;28;20048;-74
2022/01/10 10:21:47;;;;;;;51.78;21.23;;;;;;;4.04;100.00;101801.69;5062412;28;20095;-74
2022/01/10 10:24:14;;;;;;;48.25;16.77;;;;;;;4.19;100.00;101803.91;5067048;28;20432;-74
2022/01/10 10:26:41;;;;;;;51.90;23.85;;;;;;;4.41;100.00;101800.91;5068748;28;20116;-74
2022/01/10 10:29:09;;;;;;;52.53;21.20;;;;;;;4.60;100.00;101799.38;5068421;28;20055;-73
2022/01/10 10:31:43;;;;;;;53.38;22.05;;;;;;;4.76;100.00;101794.91;5065851;28;20078;-71
2022/01/10 10:34:17;;;;;;;53.20;22.80;;;;;;;4.95;100.00;101788.97;5065422;28;20131;-71
2022/01/10 10:36:44;;;;;;;61.55;24.92;;;;;;;5.18;100.00;101801.22;5067473;28;20044;-74
2022/01/10 10:39:10;;;;;;;55.63;26.52;;;;;;;5.35;100.00;101803.81;5069878;28;20135;-72
2022/01/10 10:41:38;;;;;;;45.58;20.42;;;;;;;5.53;100.00;101794.28;5066968;28;20159;-74
2022/01/10 10:44:05;;;;;;;51.30;22.52;;;;;;;5.70;100.00;101799.59;5066806;28;20049;-73
2022/01/10 10:46:32;;;;;;;51.95;23.35;;;;;;;5.80;100.00;101798.41;5067879;28;20053;-73
2022/01/10 10:49:04;;;;;;;48.78;21.67;;;;;;;5.87;100.00;101817.91;5062603;28;20049;-72
2022/01/10 10:51:33;;;;;;;54.67;23.70;;;;;;;5.98;100.00;101821.81;5058706;28;20098;-75
2022/01/10 10:54:06;;;;;;;44.58;18.88;;;;;;;6.25;100.00;101818.44;5049314;28;20133;-75
2022/01/10 10:56:38;;;;;;;53.15;23.42;;;;;;;6.59;100.00;101827.06;5049044;28;20424;-71
2022/01/10 10:59:11;;;;;;;41.65;19.05;;;;;;;6.72;100.00;101828.63;5056487;28;20040;-74
2022/01/10 11:01:40;;;;;;;47.42;20.20;;;;;;;7.57;100.00;101838.31;5065627;28;20069;-75
2022/01/10 11:04:10;;;;;;;51.13;22.00;;;;;;;10.02;100.00;101837.94;5048124;28;20466;-74
2022/01/10 11:06:40;;;;;;;50.78;22.05;;;;;;;12.51;100.00;101840.66;5054525;28;20048;-73
2022/01/10 11:09:10;;;;;;;48.17;22.20;;;;;;;14.14;85.75;101844.78;5049232;28;20460;-73
2022/01/10 11:11:37;;;;;;;39.40;19.48;;;;;;;15.74;78.71;101850.66;5050383;28;20055;-74
2022/01/10 11:14:04;;;;;;;38.28;19.30;;;;;;;15.62;57.42;101850.31;5048658;28;20139;-73
2022/01/10 11:16:37;;;;;;;41.08;20.63;;;;;;;17.13;68.47;101855.66;5055195;28;20052;-73
2022/01/10 11:19:16;;;;;;;38.10;18.88;;;;;;;18.38;62.31;101862.94;5050945;28;20087;-74
2022/01/10 11:22:11;;;;;;;33.55;16.50;;;;;;;19.14;54.10;101860.84;5050248;28;20044;-74
2022/01/10 11:24:46;;;;;;;37.07;16.43;;;;;;;19.58;56.96;101854.81;5050179;28;20144;-76